Time;durP1;ratioP1;P1;durP2;ratioP2;P2;SDS_P1;SDS_P2;PMS_P1;PMS_P2;Temp;Humidity;BMP_temperature;BMP_pressure;BME280_temperature;BME280_humidity;BME280_pressure;Samples;Min_cycle;Max_cycle;Signal;HPM_P1;HPM_P2
2022/05/20 00:00:54;;;;;;;27.05;21.25;;;19.50;99.90;;;;;;2084269;28;20021;-70
2022/05/20 00:01:55;;;;;;;23.33;20.58;;;19.50;99.90;;;;;;2085487;28;20064;-70
2022/05/20 00:02:56;;;;;;;23.33;20.88;;;19.40;99.90;;;;;;2082311;28;20067;-70
2022/05/20 00:03:58;;;;;;;22.67;20.33;;;19.40;99.90;;;;;;2086900;28;20032;-70
2022/05/20 00:04:59;;;;;;;22.35;20.13;;;19.40;99.90;;;;;;2087364;28;20040;-70
2022/05/20 00:06:00;;;;;;;22.30;20.00;;;19.40;99.90;;;;;;2081757;28;20053;-70
2022/05/20 00:07:01;;;;;;;25.10;22.05;;;19.30;99.90;;;;;;2087044;28;20033;-70
2022/05/20 00:08:02;;;;;;;23.10;20.77;;;19.30;99.90;;;;;;2084635;28;20607;-70
2022/05/20 00:09:02;;;;;;;25.70;22.83;;;19.40;99.90;;;;;;2084544;28;20033;-70
2022/05/20 00:10:03;;;;;;;21.98;19.77;;;19.30;99.90;;;;;;2090370;28;20062;-70
2022/05/20 00:11:04;;;;;;;24.00;20.30;;;19.30;99.90;;;;;;2085649;28;20022;-70
2022/05/20 00:12:05;;;;;;;25.90;23.15;;;19.30;99.90;;;;;;2089547;28;20040;-70
2022/05/20 00:13:07;;;;;;;24.67;22.15;;;19.20;99.90;;;;;;2088530;28;20033;-70
2022/05/20 00:14:07;;;;;;;26.50;23.67;;;19.30;99.90;;;;;;2085312;28;20443;-70
2022/05/20 00:15:10;;;;;;;27.38;23.30;;;19.20;99.90;;;;;;2084554;28;20097;-70
2022/05/20 00:16:11;;;;;;;25.70;23.05;;;19.20;99.90;;;;;;2086716;28;20460;-70
2022/05/20 00:17:11;;;;;;;20.65;18.45;;;19.20;99.90;;;;;;2088267;28;20029;-70
2022/05/20 00:18:12;;;;;;;26.92;24.33;;;19.20;99.90;;;;;;2083914;28;20124;-70
2022/05/20 00:19:13;;;;;;;25.15;22.58;;;19.10;99.90;;;;;;2083264;28;20029;-70
2022/05/20 00:20:16;;;;;;;26.05;23.40;;;19.10;99.90;;;;;;2089243;28;20021;-70
2022/05/20 00:21:16;;;;;;;21.20;18.17;;;19.10;99.90;;;;;;2087548;28;20098;-70
2022/05/20 00:22:17;;;;;;;26.70;22.38;;;19.10;99.90;;;;;;2084753;28;20105;-70
2022/05/20 00:23:18;;;;;;;27.73;24.60;;;19.10;99.90;;;;;;2085625;28;20025;-70
2022/05/20 00:24:18;;;;;;;28.63;24.85;;;19.10;99.90;;;;;;2084541;28;20014;-70
2022/05/20 00:26:40;;;;;;;27.33;24.42;;;19.00;99.90;;;;;;2089550;28;20693;-70
2022/05/20 00:27:41;;;;;;;22.75;20.42;;;19.00;99.90;;;;;;2084189;28;20412;-70
2022/05/20 00:28:46;;;;;;;19.52;16.58;;;19.00;99.90;;;;;;2089464;28;20102;-70
2022/05/20 00:29:47;;;;;;;21.05;18.85;;;19.00;99.90;;;;;;2088048;28;20017;-70
2022/05/20 00:30:53;;;;;;;23.65;21.30;;;19.00;99.90;;;;;;2085510;28;20396;-70
2022/05/20 00:31:54;;;;;;;23.90;21.67;;;18.90;99.90;;;;;;2084018;28;20086;-70
2022/05/20 00:32:54;;;;;;;19.60;16.88;;;18.90;99.90;;;;;;2090459;28;20086;-70
2022/05/20 00:33:55;;;;;;;26.70;23.88;;;19.00;99.90;;;;;;2086386;28;20040;-70
2022/05/20 00:34:56;;;;;;;23.50;21.08;;;19.00;99.90;;;;;;2085567;28;20017;-70
2022/05/20 00:35:57;;;;;;;23.30;20.70;;;18.90;99.90;;;;;;2084200;28;20025;-70
2022/05/20 00:36:57;;;;;;;18.65;16.70;;;18.90;99.90;;;;;;2089606;28;20112;-70
2022/05/20 00:37:58;;;;;;;19.23;16.27;;;18.90;99.90;;;;;;2088750;28;20028;-70
2022/05/20 00:38:58;;;;;;;28.38;25.15;;;18.90;99.90;;;;;;2088759;28;20661;-70
2022/05/20 00:39:59;;;;;;;33.55;27.90;;;18.90;99.90;;;;;;2082339;28;20022;-70
2022/05/20 00:41:00;;;;;;;27.75;24.95;;;18.80;99.90;;;;;;2089434;28;20027;-70
2022/05/20 00:42:10;;;;;;;26.88;24.02;;;18.80;99.90;;;;;;2089929;28;20396;-70
2022/05/20 00:43:22;;;;;;;20.48;18.38;;;18.80;99.90;;;;;;2086476;28;20112;-70
2022/05/20 00:44:22;;;;;;;25.15;22.50;;;18.80;99.90;;;;;;2082889;28;20136;-70
2022/05/20 00:45:23;;;;;;;31.00;26.45;;;18.70;99.90;;;;;;2081898;28;20029;-70
2022/05/20 00:46:25;;;;;;;33.97;29.27;;;18.70;99.90;;;;;;2084275;28;20480;-70
2022/05/20 00:47:26;;;;;;;33.72;30.13;;;18.70;99.90;;;;;;2083563;28;20031;-70
2022/05/20 00:48:28;;;;;;;33.35;28.35;;;18.70;99.90;;;;;;2083593;28;20025;-70
2022/05/20 00:49:29;;;;;;;19.00;17.10;;;18.70;99.90;;;;;;2092065;28;20061;-70
2022/05/20 00:50:30;;;;;;;30.85;27.48;;;18.60;99.90;;;;;;2090705;28;20469;-70
2022/05/20 00:51:36;;;;;;;25.15;21.08;;;18.60;99.90;;;;;;2087926;28;20366;-70
2022/05/20 00:52:38;;;;;;;26.17;23.42;;;18.60;99.90;;;;;;2084487;28;20030;-70
2022/05/20 00:53:46;;;;;;;28.25;25.08;;;18.60;99.90;;;;;;2084353;28;20089;-70
2022/05/20 00:54:51;;;;;;;31.90;26.70;;;18.60;99.90;;;;;;2087990;28;20100;-70
2022/05/20 00:55:52;;;;;;;30.35;27.15;;;18.60;99.90;;;;;;2087422;28;20013;-70
2022/05/20 00:57:00;;;;;;;27.23;24.50;;;18.60;99.90;;;;;;2084525;28;20032;-70
2022/05/20 00:58:08;;;;;;;29.63;25.13;;;18.60;99.90;;;;;;2083581;28;20029;-70
2022/05/20 00:59:15;;;;;;;27.05;23.42;;;18.50;99.90;;;;;;2082578;28;20066;-70
2022/05/20 01:00:25;;;;;;;29.40;25.95;;;18.50;99.90;;;;;;2086036;28;20116;-70
2022/05/20 01:01:28;;;;;;;28.98;26.08;;;18.50;99.90;;;;;;2083822;28;20032;-70
2022/05/20 01:02:31;;;;;;;28.80;25.85;;;18.50;99.90;;;;;;2083250;28;20449;-70
2022/05/20 01:03:32;;;;;;;27.30;24.60;;;18.50;99.90;;;;;;2086020;28;20021;-70
2022/05/20 01:04:33;;;;;;;26.38;23.60;;;18.40;99.90;;;;;;2085610;28;20538;-70
2022/05/20 01:05:37;;;;;;;26.75;23.85;;;18.40;99.90;;;;;;2082690;28;20036;-70
2022/05/20 01:06:38;;;;;;;29.77;26.60;;;18.40;99.90;;;;;;2085631;28;20036;-70
2022/05/20 01:07:40;;;;;;;28.88;26.00;;;18.40;99.90;;;;;;2086905;28;20518;-70
2022/05/20 01:08:41;;;;;;;25.75;23.00;;;18.40;99.90;;;;;;2088047;28;20033;-70
2022/05/20 01:09:41;;;;;;;25.85;23.15;;;18.40;99.90;;;;;;2086229;28;20086;-70
2022/05/20 01:10:42;;;;;;;24.67;21.90;;;18.40;99.90;;;;;;2077195;28;20087;-70
2022/05/20 01:11:43;;;;;;;23.08;20.67;;;18.30;99.90;;;;;;2080677;28;20021;-70
2022/05/20 01:12:44;;;;;;;26.52;23.73;;;18.40;99.90;;;;;;2082648;28;20044;-70
2022/05/20 01:13:48;;;;;;;25.02;22.55;;;18.30;99.90;;;;;;2081583;28;20397;-70
2022/05/20 01:14:49;;;;;;;21.30;19.00;;;18.30;99.90;;;;;;2084256;28;20087;-70
2022/05/20 01:15:50;;;;;;;20.23;18.08;;;18.30;99.90;;;;;;2086821;28;20020;-70
2022/05/20 01:16:51;;;;;;;20.42;18.23;;;18.30;99.90;;;;;;2087614;28;20078;-70
2022/05/20 01:17:53;;;;;;;24.13;21.48;;;18.30;99.90;;;;;;2088864;28;20059;-70
2022/05/20 01:18:56;;;;;;;23.00;20.70;;;18.30;99.90;;;;;;2082009;28;20520;-70
2022/05/20 01:19:57;;;;;;;29.58;22.65;;;18.20;99.90;;;;;;2089116;28;20027;-70
2022/05/20 01:20:58;;;;;;;28.20;25.48;;;18.20;99.90;;;;;;2091333;28;20033;-70
2022/05/20 01:21:59;;;;;;;26.08;23.42;;;18.20;99.90;;;;;;2088613;28;20036;-70
2022/05/20 01:23:01;;;;;;;25.77;20.92;;;18.20;99.90;;;;;;2088111;28;20385;-70
2022/05/20 01:24:03;;;;;;;23.80;19.80;;;18.20;99.90;;;;;;2088731;28;20021;-70
2022/05/20 01:25:05;;;;;;;25.30;22.60;;;18.20;99.90;;;;;;2085678;28;20055;-70
2022/05/20 01:26:06;;;;;;;24.83;22.25;;;18.20;99.90;;;;;;2085039;28;20488;-70
2022/05/20 01:27:07;;;;;;;23.13;20.65;;;18.10;99.90;;;;;;2080382;28;20053;-70
2022/05/20 01:28:08;;;;;;;23.42;20.58;;;18.10;99.90;;;;;;2083985;28;20127;-70
2022/05/20 01:29:09;;;;;;;27.73;24.50;;;18.10;99.90;;;;;;2084018;28;20029;-70
2022/05/20 01:30:16;;;;;;;26.13;23.42;;;18.10;99.90;;;;;;2087175;28;20033;-70
2022/05/20 01:31:17;;;;;;;26.15;21.75;;;18.10;99.90;;;;;;2086029;28;20036;-70
2022/05/20 01:32:17;;;;;;;25.58;22.98;;;18.10;99.90;;;;;;2082236;28;20030;-70
2022/05/20 01:33:30;;;;;;;26.42;21.33;;;18.10;99.90;;;;;;2085983;28;20109;-70
2022/05/20 01:34:30;;;;;;;25.75;22.27;;;18.10;99.90;;;;;;2085778;28;20096;-70
2022/05/20 01:35:43;;;;;;;21.00;18.83;;;18.00;99.90;;;;;;2084023;28;20080;-70
2022/05/20 01:36:44;;;;;;;20.92;18.83;;;18.10;99.90;;;;;;2080286;28;20085;-70
2022/05/20 01:37:44;;;;;;;21.25;17.55;;;18.00;99.90;;;;;;2090530;28;20024;-70
2022/05/20 01:38:45;;;;;;;23.83;21.45;;;18.00;99.90;;;;;;2083677;28;20104;-70
2022/05/20 01:39:46;;;;;;;20.88;17.80;;;18.00;99.90;;;;;;2084415;28;20432;-70
2022/05/20 01:41:03;;;;;;;21.42;19.42;;;18.00;99.90;;;;;;2083079;28;20020;-70
2022/05/20 01:42:19;;;;;;;28.45;23.42;;;18.00;99.90;;;;;;2082837;28;20108;-70
2022/05/20 01:43:51;;;;;;;28.45;25.55;;;18.00;99.90;;;;;;2080854;28;20025;-70
2022/05/20 01:44:58;;;;;;;22.83;20.42;;;18.00;99.90;;;;;;2081167;28;20014;-70
2022/05/20 01:46:25;;;;;;;29.88;24.77;;;18.00;99.90;;;;;;2085566;28;20051;-70
2022/05/20 01:47:30;;;;;;;27.52;23.35;;;17.90;99.90;;;;;;2085500;28;20477;-70
2022/05/20 01:48:39;;;;;;;27.17;24.40;;;17.90;99.90;;;;;;2083580;28;20473;-70
2022/05/20 01:49:48;;;;;;;31.13;27.00;;;17.90;99.90;;;;;;2085417;28;20021;-70
2022/05/20 01:50:55;;;;;;;27.08;23.73;;;17.90;99.90;;;;;;2077191;28;20449;-70
2022/05/20 01:52:18;;;;;;;26.83;24.00;;;17.90;99.90;;;;;;2088030;28;20068;-70
2022/05/20 01:53:37;;;;;;;24.83;21.77;;;17.90;99.90;;;;;;2082368;28;20026;-70
2022/05/20 01:54:59;;;;;;;20.98;18.80;;;17.80;99.90;;;;;;2087186;28;20686;-70
2022/05/20 01:56:12;;;;;;;25.65;18.77;;;17.80;99.90;;;;;;2083276;28;20131;-70
2022/05/20 01:57:23;;;;;;;23.70;20.48;;;17.80;99.90;;;;;;2086513;28;20463;-70
2022/05/20 01:58:34;;;;;;;24.25;20.30;;;17.80;99.90;;;;;;2080706;28;20033;-70
2022/05/20 01:59:42;;;;;;;21.52;19.20;;;17.80;99.90;;;;;;2088570;28;20025;-70
2022/05/20 02:00:45;;;;;;;19.50;17.65;;;17.80;99.90;;;;;;2089643;28;20111;-70
2022/05/20 02:02:02;;;;;;;24.48;22.00;;;17.80;99.90;;;;;;2087793;28;20103;-70
2022/05/20 02:03:18;;;;;;;21.35;19.35;;;17.80;99.90;;;;;;2089925;28;20029;-70
2022/05/20 02:04:25;;;;;;;26.33;23.48;;;17.70;99.90;;;;;;2083998;28;20018;-70
2022/05/20 02:05:43;;;;;;;27.85;24.88;;;17.70;99.90;;;;;;2084334;28;20076;-70
2022/05/20 02:06:49;;;;;;;29.20;25.95;;;17.70;99.90;;;;;;2083698;28;20021;-70
2022/05/20 02:07:58;;;;;;;26.73;23.98;;;17.70;99.90;;;;;;2094961;28;20028;-70
2022/05/20 02:09:03;;;;;;;25.70;23.08;;;17.70;99.90;;;;;;2091568;28;20052;-70
2022/05/20 02:10:35;;;;;;;26.95;24.15;;;17.70;99.90;;;;;;2087834;28;20025;-70
2022/05/20 02:11:41;;;;;;;23.00;20.60;;;17.60;99.90;;;;;;2083630;28;20486;-70
2022/05/20 02:12:46;;;;;;;27.25;22.52;;;17.60;99.90;;;;;;2086988;28;20035;-70
2022/05/20 02:13:55;;;;;;;20.30;18.27;;;17.60;99.90;;;;;;2086594;28;20045;-70
2022/05/20 02:15:09;;;;;;;21.00;17.95;;;17.60;99.90;;;;;;2084309;28;20025;-70
2022/05/20 02:16:18;;;;;;;21.35;18.60;;;17.60;99.90;;;;;;2086276;28;20433;-70
2022/05/20 02:17:37;;;;;;;18.98;17.17;;;17.50;99.90;;;;;;2086261;28;20485;-70
2022/05/20 02:18:45;;;;;;;18.05;16.15;;;17.50;99.90;;;;;;2086604;28;20075;-70
2022/05/20 02:19:54;;;;;;;25.20;21.90;;;17.40;99.90;;;;;;2083830;28;20029;-70
2022/05/20 02:21:01;;;;;;;25.48;22.88;;;17.50;99.90;;;;;;2088276;28;20039;-70
2022/05/20 02:22:05;;;;;;;24.60;21.55;;;17.50;99.90;;;;;;2083532;28;20033;-70
2022/05/20 02:23:14;;;;;;;25.98;23.27;;;17.40;99.90;;;;;;2085791;28;20053;-70
2022/05/20 02:24:19;;;;;;;21.95;19.45;;;17.40;99.90;;;;;;2089674;28;20052;-70
2022/05/20 02:25:29;;;;;;;21.83;19.58;;;17.40;99.90;;;;;;2087357;28;20120;-70
2022/05/20 02:26:38;;;;;;;24.60;22.02;;;17.40;99.90;;;;;;2083225;28;20072;-70
2022/05/20 02:27:42;;;;;;;24.17;21.67;;;17.40;99.90;;;;;;2083776;28;20029;-70
2022/05/20 02:28:47;;;;;;;20.23;18.27;;;17.30;99.90;;;;;;2086710;28;20357;-70
2022/05/20 02:30:13;;;;;;;24.67;20.65;;;17.30;99.90;;;;;;2084044;28;20021;-70
2022/05/20 02:31:19;;;;;;;18.58;16.67;;;17.30;99.90;;;;;;2084277;28;20017;-70
2022/05/20 02:32:27;;;;;;;23.42;20.55;;;17.30;99.90;;;;;;2083670;28;20052;-70
2022/05/20 02:33:28;;;;;;;24.88;22.40;;;17.30;99.90;;;;;;2086869;28;20119;-70
2022/05/20 02:34:29;;;;;;;26.48;23.33;;;17.20;99.90;;;;;;2090064;28;20056;-70
2022/05/20 02:35:30;;;;;;;23.15;20.88;;;17.20;99.90;;;;;;2083679;28;20025;-71
2022/05/20 02:36:34;;;;;;;25.13;22.50;;;17.20;99.90;;;;;;2086381;28;20104;-70
2022/05/20 02:37:37;;;;;;;26.33;23.10;;;17.20;99.90;;;;;;2085215;28;20125;-70
2022/05/20 02:38:37;;;;;;;25.33;22.48;;;17.20;99.90;;;;;;2082828;28;20117;-70
2022/05/20 02:39:38;;;;;;;24.73;22.27;;;17.20;99.90;;;;;;2082818;28;20645;-70
2022/05/20 02:40:41;;;;;;;22.30;19.90;;;17.20;99.90;;;;;;2085738;28;20021;-70
2022/05/20 02:41:46;;;;;;;23.48;21.08;;;17.20;99.90;;;;;;2085803;28;20029;-70
2022/05/20 02:42:47;;;;;;;23.92;20.50;;;17.10;99.90;;;;;;2087262;28;20112;-70
2022/05/20 02:43:47;;;;;;;23.77;21.48;;;17.10;99.90;;;;;;2085322;28;20020;-70
2022/05/20 02:44:49;;;;;;;25.45;19.98;;;17.10;99.90;;;;;;2082895;28;20489;-70
2022/05/20 02:45:51;;;;;;;20.45;18.45;;;17.10;99.90;;;;;;2083828;28;20416;-70
2022/05/20 02:46:52;;;;;;;22.83;20.52;;;17.10;99.90;;;;;;2090333;28;20066;-70
2022/05/20 02:47:53;;;;;;;22.52;20.20;;;17.00;99.90;;;;;;2089311;28;20675;-70
2022/05/20 02:48:53;;;;;;;20.92;18.63;;;17.00;99.90;;;;;;2085704;28;20396;-70
2022/05/20 02:49:54;;;;;;;26.23;23.52;;;17.00;99.90;;;;;;2084580;28;20025;-70
2022/05/20 02:50:54;;;;;;;29.65;26.60;;;17.00;99.90;;;;;;2086048;28;20025;-70
2022/05/20 02:51:55;;;;;;;30.05;23.90;;;17.00;99.90;;;;;;2081339;28;20033;-70
2022/05/20 02:52:55;;;;;;;27.25;24.65;;;17.00;99.90;;;;;;2082457;28;20021;-70
2022/05/20 02:53:56;;;;;;;28.02;24.45;;;17.00;99.90;;;;;;2084585;28;20029;-70
2022/05/20 02:54:57;;;;;;;23.38;20.58;;;17.00;99.90;;;;;;2086241;28;20021;-70
2022/05/20 02:55:59;;;;;;;22.95;20.55;;;17.00;99.90;;;;;;2088850;28;20031;-70
2022/05/20 02:57:00;;;;;;;26.60;23.73;;;16.90;99.90;;;;;;2087310;28;20028;-70
2022/05/20 02:58:01;;;;;;;27.88;24.60;;;16.90;99.90;;;;;;2083094;28;20555;-70
2022/05/20 03:04:23;;;;;;;25.63;20.30;;;16.80;99.90;;;;;;2081619;28;20480;-70
2022/05/20 03:05:24;;;;;;;28.73;25.05;;;16.80;99.90;;;;;;2088542;28;20416;-70
2022/05/20 03:06:24;;;;;;;28.75;25.67;;;16.80;99.90;;;;;;2085108;28;20052;-70
2022/05/20 03:07:25;;;;;;;27.77;24.80;;;16.70;99.90;;;;;;2085344;28;20029;-70
2022/05/20 03:08:25;;;;;;;21.80;19.75;;;16.80;99.90;;;;;;2087185;28;20484;-70
2022/05/20 03:09:26;;;;;;;21.52;19.17;;;16.70;99.90;;;;;;2085073;28;20029;-70
2022/05/20 03:10:27;;;;;;;26.33;23.17;;;16.80;99.90;;;;;;2086996;28;20028;-70
2022/05/20 03:11:27;;;;;;;29.42;26.33;;;16.70;99.90;;;;;;2087389;28;20075;-70
2022/05/20 03:12:28;;;;;;;32.05;28.73;;;16.70;99.90;;;;;;2088628;28;20436;-70
2022/05/20 03:13:28;;;;;;;30.88;27.52;;;16.70;99.90;;;;;;2088093;28;20485;-70
2022/05/20 03:14:29;;;;;;;29.45;26.15;;;16.70;99.90;;;;;;2085169;28;20473;-70
2022/05/20 03:15:30;;;;;;;26.63;23.83;;;16.70;99.90;;;;;;2089560;28;20447;-70
2022/05/20 03:16:32;;;;;;;29.35;26.33;;;16.70;99.90;;;;;;2088090;28;20065;-70
2022/05/20 03:17:32;;;;;;;25.25;22.77;;;16.70;99.90;;;;;;2085938;28;20013;-70
2022/05/20 03:18:33;;;;;;;24.73;22.17;;;16.70;99.90;;;;;;2084906;28;20021;-70
2022/05/20 03:19:33;;;;;;;23.10;20.80;;;16.70;99.90;;;;;;2083783;28;20521;-70
2022/05/20 03:20:34;;;;;;;24.48;21.30;;;16.70;99.90;;;;;;2083460;28;20500;-70
2022/05/20 03:21:36;;;;;;;25.02;22.25;;;16.70;99.90;;;;;;2086018;28;20040;-70
2022/05/20 03:22:37;;;;;;;22.30;19.98;;;16.70;99.90;;;;;;2085765;28;20448;-70
2022/05/20 03:23:37;;;;;;;21.60;19.35;;;16.60;99.90;;;;;;2086674;28;20033;-70
2022/05/20 03:24:38;;;;;;;27.65;24.83;;;16.60;99.90;;;;;;2089672;28;20095;-70
2022/05/20 03:25:39;;;;;;;26.42;23.63;;;16.60;99.90;;;;;;2086566;28;20396;-70
2022/05/20 03:26:40;;;;;;;24.27;21.80;;;16.60;99.90;;;;;;2087389;28;20025;-70
2022/05/20 03:27:40;;;;;;;21.13;18.98;;;16.60;99.90;;;;;;2087796;28;20476;-70
2022/05/20 03:28:45;;;;;;;19.65;17.50;;;16.60;99.90;;;;;;2090721;28;20021;-70
2022/05/20 03:29:47;;;;;;;22.50;20.08;;;16.60;99.90;;;;;;2081999;28;20053;-70
2022/05/20 03:30:47;;;;;;;26.92;24.25;;;16.60;99.90;;;;;;2084313;28;20029;-70
2022/05/20 03:31:48;;;;;;;27.40;24.77;;;16.60;99.90;;;;;;2082266;28;20115;-70
2022/05/20 03:32:49;;;;;;;23.17;20.63;;;16.60;99.90;;;;;;2085021;28;20068;-70
2022/05/20 03:33:49;;;;;;;26.75;21.75;;;16.60;99.90;;;;;;2088364;28;20114;-70
2022/05/20 03:34:50;;;;;;;26.90;24.02;;;16.60;99.90;;;;;;2084756;28;20028;-70
2022/05/20 03:35:50;;;;;;;26.67;23.88;;;16.50;99.90;;;;;;2089664;28;20043;-70
2022/05/20 03:36:51;;;;;;;24.60;21.90;;;16.60;99.90;;;;;;2088937;28;20059;-70
2022/05/20 03:37:51;;;;;;;26.88;24.00;;;16.50;99.90;;;;;;2091735;28;20092;-70
2022/05/20 03:38:52;;;;;;;26.75;22.92;;;16.50;99.90;;;;;;2086649;28;20017;-70
2022/05/20 03:39:53;;;;;;;24.92;22.30;;;16.50;99.90;;;;;;2084055;28;20401;-70
2022/05/20 03:40:53;;;;;;;30.35;23.20;;;16.50;99.90;;;;;;2085220;28;20542;-70
2022/05/20 03:41:55;;;;;;;27.42;24.67;;;16.50;99.90;;;;;;2085970;28;20389;-70
2022/05/20 03:42:57;;;;;;;26.98;24.13;;;16.50;99.90;;;;;;2087679;28;20027;-70
2022/05/20 03:43:58;;;;;;;21.98;19.58;;;16.50;99.90;;;;;;2089276;28;20025;-70
2022/05/20 03:44:59;;;;;;;26.73;23.92;;;16.50;99.90;;;;;;2086450;28;20113;-70
2022/05/20 03:46:00;;;;;;;28.00;24.92;;;16.50;99.90;;;;;;2089916;28;20725;-70
2022/05/20 03:47:01;;;;;;;28.92;25.88;;;16.50;99.90;;;;;;2086050;28;20030;-70
2022/05/20 03:48:02;;;;;;;22.48;20.17;;;16.50;99.90;;;;;;2084972;28;20075;-70
2022/05/20 03:49:02;;;;;;;23.45;21.17;;;16.40;99.90;;;;;;2084131;28;20025;-70
2022/05/20 03:50:04;;;;;;;22.08;19.75;;;16.40;99.90;;;;;;2083590;28;20025;-70
2022/05/20 03:51:13;;;;;;;24.63;22.13;;;16.40;99.90;;;;;;2090143;28;20037;-70
2022/05/20 03:52:14;;;;;;;25.13;22.60;;;16.40;99.90;;;;;;2091347;28;20044;-70
2022/05/20 03:53:15;;;;;;;29.63;25.38;;;16.40;99.90;;;;;;2084609;28;20037;-70
2022/05/20 03:54:17;;;;;;;25.80;23.00;;;16.40;99.90;;;;;;2089512;28;20500;-71
2022/05/20 03:55:18;;;;;;;28.65;25.55;;;16.40;99.90;;;;;;2087655;28;20484;-71
2022/05/20 03:56:18;;;;;;;26.60;22.75;;;16.40;99.90;;;;;;2085601;28;20405;-71
2022/05/20 03:57:19;;;;;;;23.25;20.75;;;16.40;99.90;;;;;;2085351;28;20041;-71
2022/05/20 03:58:19;;;;;;;28.17;25.23;;;16.40;99.90;;;;;;2082009;28;20129;-71
2022/05/20 03:59:20;;;;;;;27.15;24.42;;;16.40;99.90;;;;;;2090144;28;20379;-71
2022/05/20 04:00:21;;;;;;;28.00;21.00;;;16.40;99.90;;;;;;2091925;28;20037;-71
2022/05/20 04:02:41;;;;;;;19.33;17.33;;;16.40;99.90;;;;;;2085065;28;20544;-71
2022/05/20 04:03:43;;;;;;;24.02;21.60;;;16.30;99.90;;;;;;2083258;28;20443;-71
2022/05/20 04:04:48;;;;;;;26.75;23.95;;;16.30;99.90;;;;;;2087443;28;20032;-71
2022/05/20 04:05:49;;;;;;;26.55;23.80;;;16.30;99.90;;;;;;2082306;28;20017;-71
2022/05/20 04:06:50;;;;;;;23.80;21.52;;;16.30;99.90;;;;;;2088825;28;20496;-71
2022/05/20 04:07:51;;;;;;;22.55;20.15;;;16.30;99.90;;;;;;2091905;28;20407;-71
2022/05/20 04:08:51;;;;;;;28.40;25.55;;;16.30;99.90;;;;;;2089945;28;20507;-71
2022/05/20 04:09:53;;;;;;;28.60;25.30;;;16.30;99.90;;;;;;2088063;28;20676;-71
2022/05/20 04:10:54;;;;;;;25.88;23.15;;;16.30;99.90;;;;;;2085602;28;20100;-71
2022/05/20 04:11:57;;;;;;;24.40;21.10;;;16.30;99.90;;;;;;2086619;28;20025;-71
2022/05/20 04:12:58;;;;;;;23.55;21.23;;;16.30;99.90;;;;;;2085237;28;20059;-71
2022/05/20 04:13:58;;;;;;;26.90;24.08;;;16.30;99.90;;;;;;2082287;28;20033;-71
2022/05/20 04:15:00;;;;;;;27.40;24.58;;;16.40;99.90;;;;;;2080268;28;20022;-71
2022/05/20 04:16:01;;;;;;;26.08;23.48;;;16.40;99.90;;;;;;2085069;28;20060;-71
2022/05/20 04:17:03;;;;;;;26.88;23.55;;;16.40;99.90;;;;;;2084009;28;20072;-71
2022/05/20 04:18:04;;;;;;;29.70;23.73;;;16.40;99.90;;;;;;2085226;28;20032;-71
2022/05/20 04:19:04;;;;;;;36.47;31.52;;;16.40;99.90;;;;;;2084586;28;20474;-71
2022/05/20 04:20:07;;;;;;;35.70;31.98;;;16.40;99.90;;;;;;2086859;28;20021;-71
2022/05/20 04:21:08;;;;;;;38.67;34.15;;;16.40;99.90;;;;;;2085995;28;20048;-71
2022/05/20 04:22:11;;;;;;;35.50;31.70;;;16.40;99.90;;;;;;2091131;28;20046;-71
2022/05/20 04:23:11;;;;;;;35.80;32.13;;;16.50;99.90;;;;;;2092340;28;20425;-71
2022/05/20 04:24:12;;;;;;;35.90;31.73;;;16.40;99.90;;;;;;2089819;28;20032;-71
2022/05/20 04:25:12;;;;;;;31.60;28.20;;;16.40;99.90;;;;;;2086853;28;20051;-71
2022/05/20 04:26:14;;;;;;;29.13;26.17;;;16.50;99.90;;;;;;2085883;28;20489;-71
2022/05/20 04:27:15;;;;;;;38.78;34.22;;;16.50;99.90;;;;;;2087288;28;20057;-71
2022/05/20 04:28:16;;;;;;;40.03;35.80;;;16.50;99.90;;;;;;2086316;28;20017;-71
2022/05/20 04:29:16;;;;;;;39.80;33.72;;;16.50;99.90;;;;;;2084740;28;20038;-71
2022/05/20 04:30:17;;;;;;;35.78;31.88;;;16.50;99.90;;;;;;2087627;28;20472;-71
2022/05/20 04:31:17;;;;;;;39.17;34.90;;;16.50;99.90;;;;;;2087096;28;20416;-71
2022/05/20 04:32:18;;;;;;;39.75;33.28;;;16.60;99.90;;;;;;2085327;28;20059;-71
2022/05/20 04:33:18;;;;;;;35.70;32.00;;;16.60;99.90;;;;;;2081962;28;20058;-71
2022/05/20 04:34:19;;;;;;;37.97;33.97;;;16.60;99.90;;;;;;2083259;28;20033;-71
2022/05/20 04:35:20;;;;;;;38.08;34.08;;;16.60;99.90;;;;;;2082100;28;20025;-71
2022/05/20 04:36:21;;;;;;;39.25;35.10;;;16.60;99.90;;;;;;2085620;28;20029;-71
2022/05/20 04:37:23;;;;;;;37.83;33.63;;;16.60;99.90;;;;;;2084672;28;20017;-71
2022/05/20 04:38:24;;;;;;;34.53;29.35;;;16.60;99.90;;;;;;2086217;28;20110;-71
2022/05/20 04:39:24;;;;;;;31.77;28.25;;;16.60;99.90;;;;;;2084295;28;20029;-71
2022/05/20 04:40:25;;;;;;;40.95;35.28;;;16.60;99.90;;;;;;2085145;28;20040;-71
2022/05/20 04:46:57;;;;;;;40.30;35.90;;;16.70;99.90;;;;;;2084774;28;20025;-71
2022/05/20 04:48:00;;;;;;;44.75;38.42;;;16.70;99.90;;;;;;2084984;28;20029;-71
2022/05/20 04:49:00;;;;;;;44.10;37.45;;;16.80;99.90;;;;;;2075712;28;20026;-71
2022/05/20 04:50:04;;;;;;;42.97;38.33;;;16.70;99.90;;;;;;2085161;28;20028;-71
2022/05/20 04:51:05;;;;;;;42.35;37.42;;;16.80;99.90;;;;;;2087937;28;20031;-71
2022/05/20 04:52:06;;;;;;;40.95;36.67;;;16.80;99.90;;;;;;2081329;28;20060;-71
2022/05/20 04:53:07;;;;;;;40.35;36.00;;;16.90;99.90;;;;;;2080268;28;20424;-71
2022/05/20 04:55:27;;;;;;;37.38;33.10;;;16.90;99.90;;;;;;2084364;28;20033;-71
2022/05/20 04:56:28;;;;;;;36.47;32.03;;;16.90;99.90;;;;;;2083843;28;20128;-71
2022/05/20 04:57:43;;;;;;;34.55;30.98;;;17.00;99.90;;;;;;2083839;28;20092;-71
2022/05/20 04:58:43;;;;;;;38.40;34.40;;;17.00;99.90;;;;;;2083250;28;20024;-71
2022/05/20 04:59:45;;;;;;;38.45;34.45;;;17.10;99.90;;;;;;2081017;28;20477;-71
2022/05/20 05:00:46;;;;;;;36.17;32.22;;;17.10;99.90;;;;;;2080938;28;20021;-71
2022/05/20 05:01:48;;;;;;;37.58;33.08;;;17.10;99.90;;;;;;2084288;28;20017;-71
2022/05/20 05:02:50;;;;;;;39.22;34.65;;;17.20;99.90;;;;;;2086816;28;20059;-71
2022/05/20 05:03:51;;;;;;;39.70;34.28;;;17.20;99.90;;;;;;2086512;28;20025;-71
2022/05/20 05:04:51;;;;;;;36.00;32.10;;;17.20;99.90;;;;;;2087808;28;20016;-71
2022/05/20 05:05:52;;;;;;;35.40;31.73;;;17.30;99.90;;;;;;2083572;28;20072;-71
2022/05/20 05:06:52;;;;;;;41.53;36.97;;;17.30;99.90;;;;;;2081599;28;20144;-71
2022/05/20 05:07:55;;;;;;;36.95;32.95;;;17.40;99.90;;;;;;2081378;28;20100;-71
2022/05/20 05:08:56;;;;;;;36.40;32.55;;;17.40;99.90;;;;;;2081794;28;20040;-71
2022/05/20 05:09:58;;;;;;;41.50;35.95;;;17.50;99.90;;;;;;2084274;28;20025;-71
2022/05/20 05:10:59;;;;;;;39.88;35.67;;;17.50;99.90;;;;;;2085321;28;20029;-71
2022/05/20 05:11:59;;;;;;;36.42;32.25;;;17.50;99.90;;;;;;2082187;28;20029;-71
2022/05/20 05:13:01;;;;;;;35.00;31.42;;;17.50;99.90;;;;;;2080672;28;20029;-71
2022/05/20 05:14:02;;;;;;;37.85;33.67;;;17.50;99.90;;;;;;2083418;28;20025;-71
2022/05/20 05:15:05;;;;;;;38.13;34.13;;;17.60;99.90;;;;;;2075415;28;20028;-72
2022/05/20 05:16:07;;;;;;;38.60;33.72;;;17.60;99.90;;;;;;2084471;28;20025;-71
2022/05/20 05:17:09;;;;;;;39.47;35.42;;;17.60;99.90;;;;;;2080805;28;20051;-70
2022/05/20 05:18:12;;;;;;;41.60;36.47;;;17.60;99.90;;;;;;2084676;28;20543;-70
2022/05/20 05:19:12;;;;;;;37.55;33.75;;;17.70;99.90;;;;;;2082882;28;20104;-70
2022/05/20 05:20:18;;;;;;;41.03;36.58;;;17.60;99.90;;;;;;2080478;28;20029;-70
2022/05/20 05:21:19;;;;;;;43.03;38.47;;;17.70;99.90;;;;;;2081107;28;20103;-70
2022/05/20 05:22:20;;;;;;;36.20;32.53;;;17.70;99.90;;;;;;2081581;28;20030;-70
2022/05/20 05:23:21;;;;;;;37.75;33.70;;;17.70;99.90;;;;;;2079874;28;20040;-70
2022/05/20 05:24:21;;;;;;;37.00;33.28;;;17.80;99.90;;;;;;2085607;28;20453;-70
2022/05/20 05:25:25;;;;;;;41.85;37.50;;;17.80;99.90;;;;;;2080999;28;20030;-70
2022/05/20 05:26:25;;;;;;;40.88;36.75;;;17.80;99.90;;;;;;2083873;28;20025;-70
2022/05/20 05:27:26;;;;;;;37.90;33.83;;;17.90;99.90;;;;;;2085224;28;20021;-70
2022/05/20 05:28:27;;;;;;;41.70;36.15;;;17.90;99.90;;;;;;2083043;28;20021;-70
2022/05/20 05:29:27;;;;;;;40.78;36.38;;;17.90;99.90;;;;;;2082697;28;20028;-70
2022/05/20 05:30:29;;;;;;;34.88;31.13;;;18.00;99.90;;;;;;2083327;28;20105;-70
2022/05/20 05:31:29;;;;;;;37.85;33.92;;;18.10;99.90;;;;;;2081888;28;20040;-70
2022/05/20 05:32:30;;;;;;;44.33;39.55;;;18.10;99.90;;;;;;2082949;28;20036;-70
2022/05/20 05:33:30;;;;;;;43.75;39.15;;;18.20;99.90;;;;;;2084462;28;20016;-70
2022/05/20 05:34:31;;;;;;;45.00;40.03;;;18.20;99.90;;;;;;2083368;28;20033;-71
2022/05/20 05:35:32;;;;;;;44.20;39.60;;;18.30;99.90;;;;;;2080635;28;20021;-78